Time;durP1;ratioP1;P1;durP2;ratioP2;P2;SDS_P1;SDS_P2;PMS_P1;PMS_P2;Temp;Humidity;BMP_temperature;BMP_pressure;BME280_temperature;BME280_humidity;BME280_pressure;Samples;Min_cycle;Max_cycle;Signal;HPM_P1;HPM_P2
2024/04/13 00:01:05;;;;;;;;;;;;;;;13.19;83.04;97518.58;108829;1273;25197;-90
2024/04/13 00:03:52;;;;;;;;;;;;;;;13.14;83.37;97516.41;108706;1278;124984;-88
2024/04/13 00:06:18;;;;;;;;;;;;;;;13.12;83.41;97522.39;108799;1278;23346;-88
2024/04/13 00:08:45;;;;;;;;;;;;;;;13.11;83.44;97523.58;108679;1277;125308;-89
2024/04/13 00:11:11;;;;;;;;;;;;;;;13.11;83.47;97517.35;108885;1277;23839;-88
2024/04/13 00:13:38;;;;;;;;;;;;;;;13.10;83.34;97521.73;108809;1277;25533;-88
2024/04/13 00:16:04;;;;;;;;;;;;;;;13.11;83.49;97523.02;108805;1273;124939;-89
2024/04/13 00:18:34;;;;;;;;;;;;;;;13.13;83.50;97525.30;108875;1273;22511;-90
2024/04/13 00:21:00;;;;;;;;;;;;;;;13.14;83.37;97530.38;108723;1277;125145;-89
2024/04/13 00:23:28;;;;;;;;;;;;;;;13.13;83.55;97528.95;108882;1276;22506;-89
2024/04/13 00:25:57;;;;;;;;;;;;;;;13.11;83.39;97526.13;108870;1275;22519;-89
2024/04/13 00:28:23;;;;;;;;;;;;;;;13.14;83.41;97521.43;108828;1278;125212;-89
2024/04/13 00:30:50;;;;;;;;;;;;;;;13.15;84.11;97523.81;108858;1277;23821;-90
2024/04/13 00:33:18;;;;;;;;;;;;;;;13.13;83.57;97524.34;108716;1272;125100;-89
2024/04/13 00:35:44;;;;;;;;;;;;;;;13.13;83.63;97523.86;108804;1274;26443;-88
2024/04/13 00:38:13;;;;;;;;;;;;;;;13.13;83.75;97526.17;108700;1277;125040;-89
2024/04/13 00:40:42;;;;;;;;;;;;;;;13.09;83.74;97525.48;108891;1278;23893;-88
2024/04/13 00:43:08;;;;;;;;;;;;;;;13.07;83.84;97521.98;108864;1277;22548;-89
2024/04/13 00:45:42;;;;;;;;;;;;;;;13.02;83.63;97525.61;108808;1275;125197;-90
2024/04/13 00:48:12;;;;;;;;;;;;;;;12.97;83.57;97522.69;108811;1274;22504;-89
2024/04/13 00:50:40;;;;;;;;;;;;;;;12.91;83.75;97522.61;108807;1273;125511;-89
2024/04/13 00:53:09;;;;;;;;;;;;;;;12.86;83.78;97518.34;108802;1272;22556;-89
2024/04/13 00:55:36;;;;;;;;;;;;;;;12.86;84.17;97518.14;108852;1277;22537;-90
2024/04/13 00:58:05;;;;;;;;;;;;;;;12.84;84.43;97519.73;108690;1273;125020;-89
2024/04/13 01:00:33;;;;;;;;;;;;;;;12.80;84.36;97512.92;108802;1273;22493;-88
2024/04/13 01:03:00;;;;;;;;;;;;;;;12.76;84.51;97513.02;108803;1268;124910;-89
2024/04/13 01:05:27;;;;;;;;;;;;;;;12.72;84.53;97511.36;108861;1277;25269;-88
2024/04/13 01:07:54;;;;;;;;;;;;;;;12.70;84.68;97510.38;108865;1277;22505;-89
2024/04/13 01:10:21;;;;;;;;;;;;;;;12.67;84.77;97506.37;108717;1279;124803;-89
2024/04/13 01:12:47;;;;;;;;;;;;;;;12.65;84.73;97511.83;108817;1273;22555;-89
2024/04/13 01:15:15;;;;;;;;;;;;;;;12.63;84.72;97511.67;108663;1277;124885;-88
2024/04/13 01:17:43;;;;;;;;;;;;;;;12.60;85.00;97509.49;108894;1273;24791;-89
2024/04/13 01:20:10;;;;;;;;;;;;;;;12.57;85.18;97510.27;108700;1277;125026;-89
2024/04/13 01:22:39;;;;;;;;;;;;;;;12.55;85.41;97513.00;108763;1274;22535;-89
2024/04/13 01:25:05;;;;;;;;;;;;;;;12.55;85.59;97515.48;108779;1273;24309;-90
2024/04/13 01:27:32;;;;;;;;;;;;;;;12.53;85.71;97514.34;108677;1273;125085;-88
2024/04/13 01:29:58;;;;;;;;;;;;;;;12.52;85.56;97511.30;108791;1277;22496;-89
2024/04/13 01:32:24;;;;;;;;;;;;;;;12.51;85.61;97506.66;108739;1275;125282;-89
2024/04/13 01:34:51;;;;;;;;;;;;;;;12.51;85.27;97506.83;108866;1277;26402;-89
2024/04/13 01:37:17;;;;;;;;;;;;;;;12.60;84.95;97511.42;108755;1278;22548;-89
2024/04/13 01:39:44;;;;;;;;;;;;;;;12.64;85.52;97505.96;108738;1278;125018;-88
2024/04/13 01:42:10;;;;;;;;;;;;;;;12.60;85.40;97502.71;108734;1278;25421;-89
2024/04/13 01:44:37;;;;;;;;;;;;;;;12.57;85.39;97507.75;108637;1273;125062;-89
2024/04/13 01:47:03;;;;;;;;;;;;;;;12.56;85.48;97511.77;108738;1278;23157;-89
2024/04/13 01:49:30;;;;;;;;;;;;;;;12.52;85.60;97502.73;108839;1278;23652;-89
2024/04/13 01:51:56;;;;;;;;;;;;;;;12.50;85.66;97506.48;108746;1278;124908;-88
2024/04/13 01:54:23;;;;;;;;;;;;;;;12.47;85.70;97501.73;108726;1277;22531;-89
2024/04/13 01:56:50;;;;;;;;;;;;;;;12.45;85.90;97501.48;108671;1279;124985;-88
2024/04/13 01:59:16;;;;;;;;;;;;;;;12.41;85.82;97501.73;108811;1278;22619;-88
2024/04/13 02:01:43;;;;;;;;;;;;;;;12.38;85.63;97502.39;108884;1278;22517;-87
2024/04/13 02:04:09;;;;;;;;;;;;;;;12.36;85.89;97502.08;108685;1274;125337;-90
2024/04/13 02:06:35;;;;;;;;;;;;;;;12.34;85.71;97503.17;108783;1278;23314;-89
2024/04/13 02:09:03;;;;;;;;;;;;;;;12.31;85.95;97501.36;108677;1278;124911;-89
2024/04/13 02:11:29;;;;;;;;;;;;;;;12.27;86.05;97498.48;108799;1273;25224;-89
2024/04/13 02:13:56;;;;;;;;;;;;;;;12.26;86.00;97498.77;108787;1278;22496;-89
2024/04/13 02:16:22;;;;;;;;;;;;;;;12.25;85.77;97501.48;108718;1273;124822;-89
2024/04/13 02:18:48;;;;;;;;;;;;;;;12.24;85.65;97500.94;108701;1273;22526;-89
2024/04/13 02:21:16;;;;;;;;;;;;;;;12.21;85.84;97495.04;108648;1278;125208;-89
2024/04/13 02:23:42;;;;;;;;;;;;;;;12.18;85.88;97491.50;108802;1268;25281;-89
2024/04/13 02:26:09;;;;;;;;;;;;;;;12.16;85.98;97493.34;108771;1279;125195;-88
2024/04/13 02:28:36;;;;;;;;;;;;;;;12.14;85.94;97490.53;108755;1278;25385;-89
2024/04/13 02:31:02;;;;;;;;;;;;;;;12.12;85.97;97491.10;108756;1271;23203;-89
2024/04/13 02:33:29;;;;;;;;;;;;;;;12.09;86.28;97490.20;108673;1278;124961;-89
2024/04/13 02:36:05;;;;;;;;;;;;;;;12.08;86.26;97496.45;108741;1278;23277;-89
2024/04/13 02:38:33;;;;;;;;;;;;;;;12.06;86.22;97498.96;108603;1278;125102;-89
2024/04/13 02:40:59;;;;;;;;;;;;;;;12.02;86.39;97499.83;108979;1278;22542;-88
2024/04/13 02:43:26;;;;;;;;;;;;;;;11.98;86.57;97499.34;108806;1278;23335;-89
2024/04/13 02:45:53;;;;;;;;;;;;;;;11.95;86.59;97499.48;108810;1277;124902;-89
2024/04/13 02:48:20;;;;;;;;;;;;;;;11.94;86.79;97503.64;108768;1277;22525;-88
2024/04/13 02:50:47;;;;;;;;;;;;;;;11.93;86.90;97502.19;108867;1277;124898;-90
2024/04/13 02:53:13;;;;;;;;;;;;;;;11.92;86.67;97501.95;108999;1275;23924;-89
2024/04/13 02:55:41;;;;;;;;;;;;;;;11.91;86.81;97506.05;108744;1273;22514;-89
2024/04/13 02:58:07;;;;;;;;;;;;;;;11.88;86.82;97503.91;108816;1277;124958;-88
2024/04/13 03:00:34;;;;;;;;;;;;;;;11.84;86.92;97510.11;108722;1273;22987;-89
2024/04/13 03:03:00;;;;;;;;;;;;;;;11.81;87.08;97511.58;108816;1273;124968;-88
2024/04/13 03:05:27;;;;;;;;;;;;;;;11.80;87.15;97513.86;108921;1277;25195;-88
2024/04/13 03:07:53;;;;;;;;;;;;;;;11.78;87.47;97516.11;108753;1277;25838;-88
2024/04/13 03:10:21;;;;;;;;;;;;;;;11.74;87.14;97510.58;108798;1277;124933;-89
2024/04/13 03:12:47;;;;;;;;;;;;;;;11.72;87.26;97509.38;108777;1272;22533;-89
2024/04/13 03:15:14;;;;;;;;;;;;;;;11.70;87.16;97508.91;108661;1277;124910;-88
2024/04/13 03:17:40;;;;;;;;;;;;;;;11.70;87.28;97503.52;108776;1265;22523;-89
2024/04/13 03:20:07;;;;;;;;;;;;;;;11.71;87.59;97505.29;108631;1277;125100;-88
2024/04/13 03:22:33;;;;;;;;;;;;;;;11.69;87.56;97507.23;108897;1278;22523;-88
2024/04/13 03:25:05;;;;;;;;;;;;;;;11.67;87.39;97508.70;108972;1272;24305;-89
2024/04/13 03:27:33;;;;;;;;;;;;;;;11.67;87.30;97502.99;108803;1272;124937;-88
2024/04/13 03:30:00;;;;;;;;;;;;;;;11.67;87.35;97503.88;108783;1268;22526;-90
2024/04/13 03:32:26;;;;;;;;;;;;;;;11.69;87.15;97505.21;108789;1271;125168;-89
2024/04/13 03:34:53;;;;;;;;;;;;;;;11.67;87.70;97501.63;108944;1273;22491;-89
2024/04/13 03:37:19;;;;;;;;;;;;;;;11.65;87.94;97502.84;108744;1274;22549;-89
2024/04/13 03:39:46;;;;;;;;;;;;;;;11.63;87.94;97504.40;108665;1271;125013;-89
2024/04/13 03:42:13;;;;;;;;;;;;;;;11.63;87.96;97507.46;108794;1273;22510;-87
2024/04/13 03:44:39;;;;;;;;;;;;;;;11.61;88.13;97505.17;108688;1278;125091;-89
2024/04/13 03:47:05;;;;;;;;;;;;;;;11.61;88.15;97507.23;108807;1278;22685;-90
2024/04/13 03:49:32;;;;;;;;;;;;;;;11.61;88.58;97508.70;108770;1278;25491;-90
2024/04/13 03:51:58;;;;;;;;;;;;;;;11.59;88.85;97508.84;108862;1277;124960;-89
2024/04/13 03:54:25;;;;;;;;;;;;;;;11.58;88.66;97510.48;108777;1277;22553;-90
2024/04/13 03:56:53;;;;;;;;;;;;;;;11.58;88.67;97505.35;108685;1278;124978;-89
2024/04/13 03:59:19;;;;;;;;;;;;;;;11.59;88.79;97506.29;108857;1278;22520;-89
2024/04/13 04:01:46;;;;;;;;;;;;;;;11.58;88.71;97510.62;108813;1276;22501;-89
2024/04/13 04:04:12;;;;;;;;;;;;;;;11.57;88.82;97513.48;108665;1270;124993;-89
2024/04/13 04:06:39;;;;;;;;;;;;;;;11.56;88.66;97512.98;108849;1277;23191;-90
2024/04/13 04:09:07;;;;;;;;;;;;;;;11.56;88.68;97510.62;108783;1277;125012;-88
2024/04/13 04:11:34;;;;;;;;;;;;;;;11.57;88.99;97515.04;108763;1261;22514;-90
2024/04/13 04:14:01;;;;;;;;;;;;;;;11.55;88.73;97520.95;108730;1277;125064;-89
2024/04/13 04:16:27;;;;;;;;;;;;;;;11.55;88.86;97527.35;108936;1271;24781;-89
2024/04/13 04:18:54;;;;;;;;;;;;;;;11.55;88.89;97529.98;108797;1277;22621;-90
2024/04/13 04:21:22;;;;;;;;;;;;;;;11.56;89.06;97532.64;108753;1272;125428;-90
2024/04/13 04:23:49;;;;;;;;;;;;;;;11.60;88.82;97531.34;108986;1278;22504;-89
2024/04/13 04:26:15;;;;;;;;;;;;;;;11.64;88.90;97526.69;108839;1277;125075;-90
2024/04/13 04:28:42;;;;;;;;;;;;;;;11.68;88.94;97524.34;108890;1277;24229;-90
2024/04/13 04:31:09;;;;;;;;;;;;;;;11.70;88.60;97526.95;108783;1274;22527;-89
2024/04/13 04:33:35;;;;;;;;;;;;;;;11.72;89.15;97525.68;108784;1271;124961;-89
2024/04/13 04:36:02;;;;;;;;;;;;;;;11.73;88.60;97527.34;108915;1275;25232;-90
2024/04/13 04:38:28;;;;;;;;;;;;;;;11.75;88.61;97529.71;108752;1271;125098;-89
2024/04/13 04:40:55;;;;;;;;;;;;;;;11.76;88.78;97529.55;108873;1277;22547;-90
2024/04/13 04:43:21;;;;;;;;;;;;;;;11.78;88.87;97529.85;108799;1277;22555;-89
2024/04/13 04:45:47;;;;;;;;;;;;;;;11.78;88.72;97537.59;108723;1277;125119;-90
2024/04/13 04:48:14;;;;;;;;;;;;;;;11.79;88.67;97538.05;108836;1278;22647;-88
2024/04/13 04:50:40;;;;;;;;;;;;;;;11.80;88.55;97536.22;108591;1278;125327;-90
2024/04/13 04:53:07;;;;;;;;;;;;;;;11.81;88.70;97539.56;108785;1272;23726;-89
2024/04/13 04:55:34;;;;;;;;;;;;;;;11.81;89.09;97539.21;108844;1278;22863;-89
2024/04/13 04:58:00;;;;;;;;;;;;;;;11.81;89.35;97532.27;108633;1278;125164;-89
2024/04/13 05:00:27;;;;;;;;;;;;;;;11.82;89.13;97533.94;108828;1278;23224;-90
2024/04/13 05:02:53;;;;;;;;;;;;;;;11.83;89.16;97532.89;108624;1278;124944;-88
2024/04/13 05:05:20;;;;;;;;;;;;;;;11.85;89.57;97534.62;108789;1272;23633;-89
2024/04/13 05:07:47;;;;;;;;;;;;;;;11.87;89.73;97539.80;108741;1278;23208;-89
2024/04/13 05:10:14;;;;;;;;;;;;;;;11.89;89.82;97540.24;108827;1277;124886;-88
2024/04/13 05:12:40;;;;;;;;;;;;;;;11.92;89.65;97542.00;108804;1270;22534;-89
2024/04/13 05:15:07;;;;;;;;;;;;;;;12.00;89.64;97544.00;108717;1277;124903;-88
2024/04/13 05:17:33;;;;;;;;;;;;;;;12.05;89.92;97549.43;108796;1274;22535;-90
2024/04/13 05:20:00;;;;;;;;;;;;;;;12.08;90.23;97545.07;108766;1278;125305;-89
2024/04/13 05:22:26;;;;;;;;;;;;;;;12.13;90.42;97540.30;108765;1270;22503;-89
2024/04/13 05:24:54;;;;;;;;;;;;;;;12.18;90.35;97541.37;108813;1258;22514;-89
2024/04/13 05:27:22;;;;;;;;;;;;;;;12.26;90.05;97543.14;108644;1278;125112;-89
2024/04/13 05:29:52;;;;;;;;;;;;;;;12.35;88.33;97549.81;108921;1278;22493;-90
2024/04/13 05:32:19;;;;;;;;;;;;;;;12.46;88.74;97555.17;108702;1276;125284;-90
2024/04/13 05:34:45;;;;;;;;;;;;;;;12.54;88.45;97559.70;108796;1277;24218;-89
2024/04/13 05:37:11;;;;;;;;;;;;;;;12.63;88.36;97558.54;108789;1274;24185;-89
2024/04/13 05:39:38;;;;;;;;;;;;;;;12.72;87.64;97560.20;108722;1279;125021;-89
2024/04/13 05:42:04;;;;;;;;;;;;;;;12.81;86.51;97563.19;108912;1278;22541;-90
2024/04/13 05:44:31;;;;;;;;;;;;;;;12.89;85.47;97568.63;108673;1277;126058;-89
2024/04/13 05:46:57;;;;;;;;;;;;;;;12.96;84.99;97570.95;108916;1277;23757;-88
2024/04/13 05:49:24;;;;;;;;;;;;;;;13.02;84.67;97576.22;108867;1277;22505;-89
2024/04/13 05:51:50;;;;;;;;;;;;;;;13.06;84.79;97573.38;108696;1274;125739;-89
2024/04/13 05:54:17;;;;;;;;;;;;;;;13.09;84.84;97572.85;108649;1277;22503;-89
2024/04/13 05:56:43;;;;;;;;;;;;;;;13.12;84.45;97567.35;108786;1271;126073;-89
2024/04/13 05:59:13;;;;;;;;;;;;;;;13.15;84.26;97567.16;108900;1277;22534;-89
2024/04/13 06:01:41;;;;;;;;;;;;;;;13.18;84.31;97571.90;108949;1277;23825;-88
2024/04/13 06:04:08;;;;;;;;;;;;;;;13.22;83.99;97569.38;108825;1277;125113;-89
2024/04/13 06:06:35;;;;;;;;;;;;;;;13.27;84.14;97568.50;108930;1278;22518;-90
2024/04/13 06:09:01;;;;;;;;;;;;;;;13.32;83.88;97571.44;108816;1260;125015;-89
2024/04/13 06:11:28;;;;;;;;;;;;;;;13.35;83.57;97567.04;108956;1277;22596;-89
2024/04/13 06:13:55;;;;;;;;;;;;;;;13.40;83.30;97566.13;108897;1272;22555;-89
2024/04/13 06:16:21;;;;;;;;;;;;;;;13.45;82.86;97562.80;109613;1276;124803;-89
2024/04/13 06:18:48;;;;;;;;;;;;;;;13.49;82.74;97557.42;108598;1278;22508;-90
2024/04/13 06:21:14;;;;;;;;;;;;;;;13.54;82.72;97555.08;108713;1274;125267;-89
2024/04/13 06:23:41;;;;;;;;;;;;;;;13.58;82.56;97550.08;108888;1271;22550;-89
2024/04/13 06:26:08;;;;;;;;;;;;;;;13.61;82.66;97548.33;108848;1278;125376;-90
2024/04/13 06:28:34;;;;;;;;;;;;;;;13.64;82.63;97545.40;108847;1274;22522;-90
2024/04/13 06:31:01;;;;;;;;;;;;;;;13.66;82.85;97543.07;108761;1273;24173;-89
2024/04/13 06:33:27;;;;;;;;;;;;;;;13.67;83.24;97542.55;108761;1277;125218;-90
2024/04/13 06:35:54;;;;;;;;;;;;;;;13.68;83.11;97545.03;108812;1278;22525;-90
2024/04/13 06:38:24;;;;;;;;;;;;;;;13.71;83.60;97538.77;108848;1277;125152;-89
2024/04/13 06:40:50;;;;;;;;;;;;;;;13.73;83.82;97536.11;108740;1278;22549;-89
2024/04/13 06:43:17;;;;;;;;;;;;;;;13.75;84.34;97533.09;108923;1277;24233;-89
2024/04/13 06:45:43;;;;;;;;;;;;;;;13.79;84.74;97528.33;108904;1277;125118;-90
2024/04/13 06:48:10;;;;;;;;;;;;;;;13.82;84.78;97524.98;108870;1277;25378;-90
2024/04/13 06:50:36;;;;;;;;;;;;;;;13.86;85.13;97522.75;108809;1278;125329;-89
2024/04/13 06:53:03;;;;;;;;;;;;;;;13.88;85.89;97511.81;108837;1278;22538;-88
2024/04/13 06:55:29;;;;;;;;;;;;;;;13.90;86.12;97507.73;108823;1278;22493;-89
2024/04/13 06:57:55;;;;;;;;;;;;;;;13.93;86.15;97511.45;108733;1278;124916;-87
2024/04/13 07:00:23;;;;;;;;;;;;;;;13.98;86.00;97519.88;108645;1279;22548;-89
2024/04/13 07:02:49;;;;;;;;;;;;;;;14.04;86.65;97522.30;108785;1272;125001;-89
2024/04/13 07:05:15;;;;;;;;;;;;;;;14.09;86.83;97525.03;108819;1278;23430;-89
2024/04/13 07:07:42;;;;;;;;;;;;;;;14.15;86.83;97529.23;108662;1274;24760;-89
2024/04/13 07:10:08;;;;;;;;;;;;;;;14.18;86.62;97521.77;108828;1271;125098;-89
2024/04/13 07:12:35;;;;;;;;;;;;;;;14.23;86.57;97523.33;108727;1274;22541;-88
2024/04/13 07:15:01;;;;;;;;;;;;;;;14.27;86.96;97525.56;108774;1272;22515;-89
2024/04/13 07:17:28;;;;;;;;;;;;;;;14.33;86.95;97529.65;108703;1272;24229;-89
2024/04/13 07:19:54;;;;;;;;;;;;;;;14.38;87.65;97528.45;108700;1271;124953;-88
2024/04/13 07:22:21;;;;;;;;;;;;;;;14.43;87.81;97529.45;108785;1279;22532;-90
2024/04/13 07:24:47;;;;;;;;;;;;;;;14.49;88.11;97522.89;108728;1278;125300;-89
2024/04/13 07:27:14;;;;;;;;;;;;;;;14.54;87.70;97523.16;108728;1273;22521;-89
2024/04/13 07:29:41;;;;;;;;;;;;;;;14.58;87.35;97521.81;108884;1278;22592;-89
2024/04/13 07:32:07;;;;;;;;;;;;;;;14.65;87.29;97522.89;108707;1276;125264;-89
2024/04/13 07:34:36;;;;;;;;;;;;;;;14.74;87.88;97524.17;108756;1278;22489;-89
2024/04/13 07:37:02;;;;;;;;;;;;;;;14.79;87.16;97523.91;108723;1271;125484;-88
2024/04/13 07:39:29;;;;;;;;;;;;;;;14.83;87.48;97524.80;108869;1278;22543;-88
2024/04/13 07:41:55;;;;;;;;;;;;;;;14.87;87.83;97520.98;108826;1275;22534;-89
2024/04/13 07:44:22;;;;;;;;;;;;;;;14.92;88.11;97520.20;108768;1271;124772;-91
2024/04/13 07:46:48;;;;;;;;;;;;;;;14.99;87.57;97527.34;108787;1272;23787;-90
2024/04/13 07:49:15;;;;;;;;;;;;;;;15.02;86.89;97526.41;108609;1278;125400;-89
2024/04/13 07:51:41;;;;;;;;;;;;;;;15.06;87.06;97522.54;108881;1260;23739;-89
2024/04/13 07:54:08;;;;;;;;;;;;;;;15.09;86.91;97515.69;108764;1278;125173;-89
2024/04/13 07:56:34;;;;;;;;;;;;;;;15.12;87.23;97515.45;108724;1278;25384;-89
2024/04/13 07:59:03;;;;;;;;;;;;;;;15.16;86.88;97518.14;108786;1278;23994;-89
2024/04/13 08:01:29;;;;;;;;;;;;;;;15.20;86.92;97517.33;109112;1274;125301;-90
2024/04/13 08:03:56;;;;;;;;;;;;;;;15.25;86.81;97514.80;108761;1278;25374;-89
2024/04/13 08:06:22;;;;;;;;;;;;;;;15.30;86.62;97511.93;108743;1278;125085;-89
2024/04/13 08:08:49;;;;;;;;;;;;;;;15.37;87.33;97509.48;108714;1270;22681;-89
2024/04/13 08:11:15;;;;;;;;;;;;;;;15.41;87.48;97503.71;108678;1278;22518;-88
2024/04/13 08:13:42;;;;;;;;;;;;;;;15.46;87.26;97498.41;108597;1278;124964;-88
2024/04/13 08:16:08;;;;;;;;;;;;;;;15.52;86.96;97494.97;108569;1278;22527;-90
2024/04/13 08:18:36;;;;;;;;;;;;;;;15.57;87.16;97494.79;108626;1279;125322;-89
2024/04/13 08:21:03;;;;;;;;;;;;;;;15.61;86.96;97488.80;108635;1278;22521;-90
2024/04/13 08:23:29;;;;;;;;;;;;;;;15.68;87.67;97488.96;108866;1272;22582;-89
2024/04/13 08:26:05;;;;;;;;;;;;;;;15.74;87.29;97489.77;108753;1278;124946;-88
2024/04/13 08:28:31;;;;;;;;;;;;;;;15.79;87.19;97492.01;108703;1274;24209;-89
2024/04/13 08:31:02;;;;;;;;;;;;;;;15.85;87.31;97492.71;108620;1270;125013;-89
2024/04/13 08:33:28;;;;;;;;;;;;;;;15.88;86.51;97492.65;108659;1274;25381;-90
2024/04/13 08:36:03;;;;;;;;;;;;;;;15.93;86.73;97500.08;108755;1276;22533;-90
2024/04/13 08:38:30;;;;;;;;;;;;;;;15.96;85.51;97497.42;108604;1278;124822;-89
2024/04/13 08:40:56;;;;;;;;;;;;;;;15.99;85.40;97496.39;108755;1279;22546;-88
2024/04/13 08:43:22;;;;;;;;;;;;;;;16.04;85.30;97498.24;108669;1278;125004;-88
2024/04/13 08:45:49;;;;;;;;;;;;;;;16.07;84.96;97498.45;108719;1278;23257;-90
2024/04/13 08:48:15;;;;;;;;;;;;;;;16.15;85.95;97494.58;108702;1276;125123;-90
2024/04/13 08:50:42;;;;;;;;;;;;;;;16.20;84.92;97493.93;108711;1279;22496;-88
2024/04/13 08:53:08;;;;;;;;;;;;;;;16.27;85.44;97493.83;108729;1272;22486;-90
2024/04/13 08:55:36;;;;;;;;;;;;;;;16.31;84.96;97494.67;108664;1278;124992;-89
2024/04/13 08:58:03;;;;;;;;;;;;;;;16.36;84.13;97499.50;108639;1278;23739;-88
2024/04/13 09:00:31;;;;;;;;;;;;;;;16.41;84.96;97503.33;108678;1272;125348;-88
2024/04/13 09:02:57;;;;;;;;;;;;;;;16.48;84.71;97504.23;108738;1261;22519;-88
2024/04/13 09:05:27;;;;;;;;;;;;;;;16.52;84.45;97506.91;108861;1278;25471;-89
2024/04/13 09:07:53;;;;;;;;;;;;;;;16.59;84.43;97500.98;108590;1272;124997;-89
2024/04/13 09:10:20;;;;;;;;;;;;;;;16.64;84.16;97505.23;108876;1278;24214;-89
2024/04/13 09:12:46;;;;;;;;;;;;;;;16.68;82.78;97510.89;108695;1271;125449;-89
2024/04/13 09:15:13;;;;;;;;;;;;;;;16.68;82.78;97512.95;108799;1278;23254;-88
2024/04/13 09:17:39;;;;;;;;;;;;;;;16.71;82.59;97514.02;108882;1272;23274;-89
2024/04/13 09:20:09;;;;;;;;;;;;;;;16.72;82.54;97512.64;108797;1277;124937;-89
2024/04/13 09:22:36;;;;;;;;;;;;;;;16.79;82.74;97508.83;108866;1276;23145;-89
2024/04/13 09:25:03;;;;;;;;;;;;;;;16.85;81.98;97512.92;108766;1272;125339;-89
2024/04/13 09:27:31;;;;;;;;;;;;;;;16.88;81.04;97505.59;108779;1276;22521;-89
2024/04/13 09:30:05;;;;;;;;;;;;;;;16.91;81.62;97503.63;109016;1278;22639;-89
2024/04/13 09:32:32;;;;;;;;;;;;;;;16.97;80.80;97494.95;108822;1273;22546;-88
2024/04/13 09:35:07;;;;;;;;;;;;;;;17.04;81.56;97489.79;108834;1279;23255;-89
2024/04/13 09:37:33;;;;;;;;;;;;;;;17.11;80.02;97484.95;108804;1278;125640;-89
2024/04/13 09:40:01;;;;;;;;;;;;;;;17.16;81.59;97484.48;108814;1278;22556;-89
2024/04/13 09:42:28;;;;;;;;;;;;;;;17.28;80.96;97485.70;108718;1279;125170;-89
2024/04/13 09:45:01;;;;;;;;;;;;;;;17.36;80.78;97480.42;108738;1279;22534;-89
2024/04/13 09:47:28;;;;;;;;;;;;;;;17.43;79.51;97478.68;108759;1278;22514;-88
2024/04/13 09:49:54;;;;;;;;;;;;;;;17.48;78.99;97472.95;108700;1278;125624;-89
2024/04/13 09:52:21;;;;;;;;;;;;;;;17.59;80.12;97468.36;108694;1278;25256;-90
2024/04/13 09:54:47;;;;;;;;;;;;;;;17.66;77.84;97465.50;108575;1274;125319;-88
2024/04/13 09:57:14;;;;;;;;;;;;;;;17.69;78.21;97464.80;108839;1278;22512;-89
2024/04/13 09:59:41;;;;;;;;;;;;;;;17.76;79.23;97468.34;108856;1278;22537;-89
2024/04/13 10:02:08;;;;;;;;;;;;;;;17.79;77.22;97467.90;108700;1269;124958;-90
2024/04/13 10:04:35;;;;;;;;;;;;;;;17.83;77.03;97470.40;108685;1274;24275;-89
2024/04/13 10:07:01;;;;;;;;;;;;;;;17.88;77.02;97471.41;108702;1272;124957;-89
2024/04/13 10:09:27;;;;;;;;;;;;;;;17.97;76.37;97473.41;108838;1275;22503;-89
2024/04/13 10:11:54;;;;;;;;;;;;;;;18.02;76.16;97475.15;108759;1274;22523;-89
2024/04/13 10:14:20;;;;;;;;;;;;;;;18.13;75.91;97485.88;108839;1273;126310;-90
2024/04/13 10:16:47;;;;;;;;;;;;;;;18.14;75.88;97486.89;108939;1277;24207;-89
2024/04/13 10:19:14;;;;;;;;;;;;;;;18.09;75.36;97485.80;108773;1277;124924;-89
2024/04/13 10:21:41;;;;;;;;;;;;;;;18.02;75.52;97489.92;108582;1278;191461;-89
2024/04/13 10:24:14;;;;;;;;;;;;;;;17.97;75.26;97490.33;108743;1278;125432;-89
2024/04/13 10:26:41;;;;;;;;;;;;;;;18.02;76.60;97487.97;108864;1278;22577;-90
2024/04/13 10:29:07;;;;;;;;;;;;;;;18.14;78.00;97489.92;108786;1278;22542;-88
2024/04/13 10:31:34;;;;;;;;;;;;;;;18.31;75.98;97492.80;108722;1278;125030;-90
2024/04/13 10:34:01;;;;;;;;;;;;;;;18.34;75.49;97491.52;108838;1271;26908;-89
2024/04/13 10:36:31;;;;;;;;;;;;;;;18.39;76.04;97485.70;108798;1277;124807;-88
2024/04/13 10:38:58;;;;;;;;;;;;;;;18.47;76.48;97491.52;108882;1278;22501;-89
2024/04/13 10:41:28;;;;;;;;;;;;;;;18.48;75.31;97485.69;108887;1273;22574;-88
2024/04/13 10:43:58;;;;;;;;;;;;;;;18.46;73.65;97474.36;108733;1278;124211;-89
2024/04/13 10:46:24;;;;;;;;;;;;;;;18.41;73.52;97456.80;108873;1277;25224;-90
2024/04/13 10:48:52;;;;;;;;;;;;;;;18.43;74.65;97444.38;108770;1278;124238;-89
2024/04/13 10:51:19;;;;;;;;;;;;;;;18.50;75.55;97439.69;108899;1277;22540;-89
2024/04/13 10:53:45;;;;;;;;;;;;;;;18.56;74.78;97432.85;108867;1272;22486;-89
2024/04/13 10:56:11;;;;;;;;;;;;;;;18.65;74.09;97428.34;108725;1278;124908;-88
2024/04/13 10:58:39;;;;;;;;;;;;;;;18.69;73.86;97433.60;108800;1277;22508;-89
2024/04/13 11:01:06;;;;;;;;;;;;;;;18.75;74.10;97429.83;108765;1278;124193;-89
2024/04/13 11:03:32;;;;;;;;;;;;;;;18.81;74.62;97426.23;108843;1274;22493;-89
2024/04/13 11:06:00;;;;;;;;;;;;;;;18.85;73.66;97421.46;108831;1275;22528;-89
2024/04/13 11:08:27;;;;;;;;;;;;;;;18.86;72.51;97417.13;108939;1270;124031;-89
2024/04/13 11:10:54;;;;;;;;;;;;;;;18.87;72.19;97413.05;108829;1278;25675;-88
2024/04/13 11:13:20;;;;;;;;;;;;;;;18.86;71.46;97419.11;108639;1276;124315;-89
2024/04/13 11:15:47;;;;;;;;;;;;;;;18.92;71.81;97418.42;108790;1275;24170;-89
2024/04/13 11:18:13;;;;;;;;;;;;;;;18.96;71.27;97406.12;108617;1278;124433;-88
2024/04/13 11:20:40;;;;;;;;;;;;;;;18.98;71.66;97395.41;108879;1275;22509;-90
2024/04/13 11:23:06;;;;;;;;;;;;;;;19.02;71.51;97386.67;108841;1275;22984;-89
2024/04/13 11:25:34;;;;;;;;;;;;;;;19.08;72.16;97376.00;108780;1272;124242;-88
2024/04/13 11:28:01;;;;;;;;;;;;;;;19.12;72.29;97373.94;108846;1278;23416;-89
2024/04/13 11:30:27;;;;;;;;;;;;;;;19.21;71.93;97377.30;108707;1278;124394;-89
2024/04/13 11:32:54;;;;;;;;;;;;;;;19.23;70.82;97375.71;108959;1270;23190;-89
2024/04/13 11:35:21;;;;;;;;;;;;;;;19.22;70.57;97373.21;108943;1278;23035;-89
2024/04/13 11:37:58;;;;;;;;;;;;;;;19.28;71.74;97376.41;108763;1278;124252;-89
2024/04/13 11:40:28;;;;;;;;;;;;;;;19.35;71.64;97381.71;109116;1277;22500;-89
2024/04/13 11:42:55;;;;;;;;;;;;;;;19.43;71.76;97393.20;108732;1277;124262;-88
2024/04/13 11:45:21;;;;;;;;;;;;;;;19.53;70.97;97404.39;108667;1278;22538;-89
2024/04/13 11:47:47;;;;;;;;;;;;;;;19.60;71.15;97399.13;108877;1274;22553;-90
2024/04/13 11:50:14;;;;;;;;;;;;;;;19.61;68.89;97394.26;108787;1275;124839;-89
2024/04/13 11:52:41;;;;;;;;;;;;;;;19.58;69.35;97394.89;108910;1278;22507;-89
2024/04/13 11:55:08;;;;;;;;;;;;;;;19.57;68.21;97393.69;108743;1278;124329;-90
2024/04/13 11:57:43;;;;;;;;;;;;;;;19.59;69.79;97395.24;108976;1277;22515;-90
2024/04/13 12:00:09;;;;;;;;;;;;;;;19.64;70.09;97392.64;108623;1276;124419;-90
2024/04/13 12:02:36;;;;;;;;;;;;;;;19.73;70.47;97391.80;108870;1268;22588;-90
2024/04/13 12:05:02;;;;;;;;;;;;;;;19.80;70.51;97390.89;108752;1278;22676;-89
2024/04/13 12:07:29;;;;;;;;;;;;;;;19.83;68.96;97383.23;108496;1277;124327;-90
2024/04/13 12:09:55;;;;;;;;;;;;;;;19.80;67.59;97374.30;108832;1273;22536;-89
2024/04/13 12:12:22;;;;;;;;;;;;;;;19.75;67.18;97359.06;108749;1279;124420;-89
2024/04/13 12:14:49;;;;;;;;;;;;;;;19.76;68.15;97354.17;108822;1279;22507;-88
2024/04/13 12:17:15;;;;;;;;;;;;;;;19.80;67.09;97352.72;108813;1278;22540;-89
2024/04/13 12:19:42;;;;;;;;;;;;;;;19.78;66.59;97355.77;108760;1278;124255;-89
2024/04/13 12:22:09;;;;;;;;;;;;;;;19.79;68.29;97353.70;108759;1278;27362;-89
2024/04/13 12:24:35;;;;;;;;;;;;;;;19.87;68.74;97354.20;108712;1278;125092;-88
2024/04/13 12:27:03;;;;;;;;;;;;;;;19.89;66.77;97343.13;108881;1276;25382;-89
2024/04/13 12:29:30;;;;;;;;;;;;;;;19.84;66.42;97337.43;108628;1277;22521;-89
2024/04/13 12:31:56;;;;;;;;;;;;;;;19.85;67.23;97340.46;108683;1279;124219;-89